OAL117 LGAV-LHBP
Flight info
| Callsign | OAL117 |
|---|---|
| Flight time | 2h 5m |
| Altitude | 34000 |
| Route | KRO UG33 KOROS UN133 PEREN UL863 EVIVI DCT OKANA DCT DONIV DCT PARAK DCT KEZAL |
| Aircraft | A320/M-SDE3FGHIRWY/LB1 |
Departure
| Time | 2026-05-05 09:24 |
|---|---|
| Airport | Athens Eleftherios Venizelos International Airport (LGAV) |
Arrival
| Time | 2026-05-05 11:30 |
|---|---|
| Airport | Budapest Liszt Ferenc International Airport (LHBP) |
| Time | Latitude | Longitude | Altitude | Speed | Heading |
|---|---|---|---|---|---|
| 2026-05-05 09:12 | 37.93836 | 23.95061 | 300 ft | 0 kts | 308° |
| 2026-05-05 09:15 | 37.93831 | 23.95069 | 300 ft | 3 kts | 307° |
| 2026-05-05 09:15 | 37.93816 | 23.95094 | 301 ft | 4 kts | 307° |
| 2026-05-05 09:15 | 37.93804 | 23.95121 | 301 ft | 4 kts | 278° |
| 2026-05-05 09:15 | 37.93806 | 23.95151 | 300 ft | 4 kts | 238° |
| 2026-05-05 09:16 | 37.93805 | 23.95155 | 300 ft | 3 kts | 217° |
| 2026-05-05 09:16 | 37.93797 | 23.95148 | 303 ft | 0 kts | 214° |
| 2026-05-05 09:18 | 37.93796 | 23.95147 | 303 ft | 1 kts | 214° |
| 2026-05-05 09:18 | 37.93780 | 23.95134 | 300 ft | 5 kts | 214° |
| 2026-05-05 09:19 | 37.93746 | 23.95114 | 301 ft | 6 kts | 182° |
| 2026-05-05 09:19 | 37.93706 | 23.95138 | 300 ft | 7 kts | 137° |
| 2026-05-05 09:19 | 37.93667 | 23.95196 | 299 ft | 10 kts | 128° |
| 2026-05-05 09:19 | 37.93598 | 23.95224 | 297 ft | 12 kts | 201° |
| 2026-05-05 09:20 | 37.93523 | 23.95159 | 301 ft | 14 kts | 217° |
| 2026-05-05 09:20 | 37.93444 | 23.95084 | 299 ft | 15 kts | 214° |
| 2026-05-05 09:20 | 37.93355 | 23.95003 | 299 ft | 17 kts | 217° |
| 2026-05-05 09:20 | 37.93260 | 23.94909 | 300 ft | 18 kts | 214° |
| 2026-05-05 09:21 | 37.93150 | 23.94819 | 301 ft | 20 kts | 218° |
| 2026-05-05 09:21 | 37.93077 | 23.94739 | 303 ft | 13 kts | 219° |
| 2026-05-05 09:21 | 37.93001 | 23.94669 | 302 ft | 14 kts | 216° |
| 2026-05-05 09:21 | 37.92918 | 23.94589 | 301 ft | 16 kts | 219° |
| 2026-05-05 09:22 | 37.92828 | 23.94502 | 302 ft | 17 kts | 216° |
| 2026-05-05 09:22 | 37.92728 | 23.94412 | 303 ft | 18 kts | 214° |
| 2026-05-05 09:22 | 37.92624 | 23.94308 | 303 ft | 20 kts | 218° |
| 2026-05-05 09:22 | 37.92548 | 23.94308 | 304 ft | 10 kts | 152° |
| 2026-05-05 09:23 | 37.92507 | 23.94367 | 307 ft | 8 kts | 123° |
| 2026-05-05 09:23 | 37.92493 | 23.94425 | 308 ft | 7 kts | 86° |
| 2026-05-05 09:23 | 37.92527 | 23.94477 | 307 ft | 10 kts | 39° |
| 2026-05-05 09:23 | 37.92726 | 23.94678 | 302 ft | 71 kts | 37° |
| 2026-05-05 09:24 | 37.93295 | 23.95209 | 290 ft | 128 kts | 37° |
| 2026-05-05 09:24 | 37.94135 | 23.96009 | 305 ft | 169 kts | 37° |
| 2026-05-05 09:24 | 37.95097 | 23.96957 | 654 ft | 183 kts | 37° |
| 2026-05-05 09:24 | 37.96167 | 23.97984 | 1022 ft | 202 kts | 36° |
| 2026-05-05 09:25 | 37.97358 | 23.99113 | 1425 ft | 224 kts | 35° |
| 2026-05-05 09:25 | 37.98666 | 24.00363 | 2022 ft | 243 kts | 35° |
| 2026-05-05 09:25 | 38.00027 | 24.01667 | 3066 ft | 247 kts | 36° |
| 2026-05-05 09:25 | 38.01401 | 24.02987 | 4047 ft | 248 kts | 35° |
| 2026-05-05 09:26 | 38.02782 | 24.04318 | 4991 ft | 249 kts | 35° |
| 2026-05-05 09:26 | 38.04150 | 24.05637 | 5939 ft | 249 kts | 35° |
| 2026-05-05 09:26 | 38.05531 | 24.06969 | 6897 ft | 249 kts | 35° |
| 2026-05-05 09:26 | 38.06915 | 24.08303 | 7770 ft | 251 kts | 36° |
| 2026-05-05 09:27 | 38.08164 | 24.09876 | 8608 ft | 257 kts | 53° |
| 2026-05-05 09:27 | 38.08901 | 24.11963 | 9440 ft | 265 kts | 74° |
| 2026-05-05 09:27 | 38.08977 | 24.14384 | 9993 ft | 285 kts | 98° |
| 2026-05-05 09:27 | 38.08377 | 24.16861 | 10417 ft | 303 kts | 106° |
| 2026-05-05 09:28 | 38.07666 | 24.19451 | 10565 ft | 326 kts | 107° |
| 2026-05-05 09:28 | 38.06891 | 24.22261 | 10712 ft | 347 kts | 107° |
| 2026-05-05 09:28 | 38.06082 | 24.25197 | 11180 ft | 356 kts | 107° |
| 2026-05-05 09:28 | 38.05261 | 24.28183 | 11750 ft | 361 kts | 107° |
| 2026-05-05 09:29 | 38.04430 | 24.31212 | 12366 ft | 365 kts | 107° |
| 2026-05-05 09:29 | 38.03588 | 24.34287 | 13000 ft | 369 kts | 107° |
| 2026-05-05 09:29 | 38.02742 | 24.37381 | 13622 ft | 374 kts | 107° |
| 2026-05-05 09:29 | 38.02160 | 24.39550 | 14022 ft | 376 kts | 105° |
| 2026-05-05 09:30 | 38.01741 | 24.42781 | 14531 ft | 376 kts | 86° |
| 2026-05-05 09:30 | 38.02159 | 24.46038 | 15046 ft | 374 kts | 68° |
| 2026-05-05 09:30 | 38.03368 | 24.48933 | 15541 ft | 373 kts | 49° |
| 2026-05-05 09:30 | 38.05246 | 24.51185 | 16058 ft | 371 kts | 31° |
| 2026-05-05 09:31 | 38.07575 | 24.52567 | 16609 ft | 370 kts | 14° |
| 2026-05-05 09:31 | 38.10050 | 24.53495 | 17170 ft | 373 kts | 14° |
| 2026-05-05 09:31 | 38.12555 | 24.54425 | 17743 ft | 376 kts | 13° |
| 2026-05-05 09:31 | 38.15089 | 24.55369 | 18325 ft | 380 kts | 13° |
| 2026-05-05 09:32 | 38.17633 | 24.56322 | 18831 ft | 383 kts | 13° |
| 2026-05-05 09:32 | 38.20174 | 24.57278 | 19331 ft | 386 kts | 13° |
| 2026-05-05 09:32 | 38.22766 | 24.58259 | 19850 ft | 390 kts | 13° |
| 2026-05-05 09:32 | 38.25384 | 24.59248 | 20370 ft | 393 kts | 13° |
| 2026-05-05 09:33 | 38.28019 | 24.60244 | 20846 ft | 396 kts | 13° |
| 2026-05-05 09:33 | 38.29773 | 24.60908 | 21157 ft | 398 kts | 13° |
| 2026-05-05 09:33 | 38.31593 | 24.61602 | 21478 ft | 400 kts | 13° |
| 2026-05-05 09:33 | 38.34269 | 24.62619 | 21916 ft | 403 kts | 13° |
| 2026-05-05 09:34 | 38.36941 | 24.63629 | 22345 ft | 405 kts | 13° |
| 2026-05-05 09:34 | 38.39655 | 24.64654 | 22774 ft | 408 kts | 13° |
| 2026-05-05 09:34 | 38.42387 | 24.65687 | 23195 ft | 411 kts | 13° |
| 2026-05-05 09:34 | 38.45152 | 24.66737 | 23610 ft | 414 kts | 13° |
| 2026-05-05 09:35 | 38.47926 | 24.67790 | 23970 ft | 416 kts | 13° |
| 2026-05-05 09:35 | 38.53472 | 24.69895 | 24703 ft | 418 kts | 13° |
| 2026-05-05 09:35 | 38.56258 | 24.70959 | 25068 ft | 419 kts | 13° |
| 2026-05-05 09:36 | 38.59065 | 24.72031 | 25427 ft | 420 kts | 13° |
| 2026-05-05 09:36 | 38.61875 | 24.73105 | 25792 ft | 421 kts | 13° |
| 2026-05-05 09:36 | 38.64692 | 24.74182 | 26157 ft | 422 kts | 13° |
| 2026-05-05 09:36 | 38.67504 | 24.75253 | 26514 ft | 423 kts | 13° |
| 2026-05-05 09:37 | 38.70301 | 24.76321 | 26865 ft | 424 kts | 13° |
| 2026-05-05 09:37 | 38.73132 | 24.77406 | 27213 ft | 425 kts | 13° |
| 2026-05-05 09:37 | 38.75959 | 24.78493 | 27633 ft | 424 kts | 13° |
| 2026-05-05 09:37 | 38.78778 | 24.79578 | 28149 ft | 421 kts | 13° |
| 2026-05-05 09:38 | 38.81576 | 24.80656 | 28673 ft | 418 kts | 12° |
| 2026-05-05 09:38 | 38.84357 | 24.81724 | 29200 ft | 415 kts | 12° |
| 2026-05-05 09:38 | 38.87125 | 24.82786 | 29709 ft | 413 kts | 12° |
| 2026-05-05 09:38 | 38.89872 | 24.83840 | 30213 ft | 410 kts | 12° |
| 2026-05-05 09:39 | 38.92611 | 24.84894 | 30637 ft | 408 kts | 12° |
| 2026-05-05 09:39 | 38.95296 | 24.85927 | 31022 ft | 407 kts | 12° |
| 2026-05-05 09:39 | 38.98015 | 24.86971 | 31407 ft | 407 kts | 12° |
| 2026-05-05 09:39 | 39.00730 | 24.88013 | 31780 ft | 406 kts | 12° |
| 2026-05-05 09:40 | 39.03437 | 24.89053 | 32158 ft | 406 kts | 12° |
| 2026-05-05 09:40 | 39.06170 | 24.89956 | 32536 ft | 401 kts | 5° |
| 2026-05-05 09:40 | 39.08937 | 24.90238 | 32904 ft | 396 kts | 355° |
| 2026-05-05 09:40 | 39.11633 | 24.89875 | 33274 ft | 392 kts | 346° |
| 2026-05-05 09:41 | 39.14243 | 24.88897 | 33646 ft | 390 kts | 337° |
| 2026-05-05 09:41 | 39.16715 | 24.87427 | 34006 ft | 389 kts | 334° |
| 2026-05-05 09:41 | 39.20777 | 24.84902 | 34096 ft | 389 kts | 333° |
| 2026-05-05 09:42 | 39.26440 | 24.81387 | 34095 ft | 388 kts | 334° |
| 2026-05-05 09:42 | 39.31318 | 24.78353 | 34097 ft | 388 kts | 333° |
| 2026-05-05 09:43 | 39.35369 | 24.75826 | 34093 ft | 388 kts | 333° |
| 2026-05-05 09:43 | 39.40248 | 24.72781 | 34095 ft | 388 kts | 333° |
| 2026-05-05 09:44 | 39.45118 | 24.69738 | 34095 ft | 388 kts | 333° |
| 2026-05-05 09:44 | 39.49964 | 24.66711 | 34094 ft | 388 kts | 333° |
| 2026-05-05 09:45 | 39.54836 | 24.63658 | 34092 ft | 389 kts | 333° |
| 2026-05-05 09:45 | 39.59716 | 24.60590 | 34091 ft | 389 kts | 333° |
| 2026-05-05 09:46 | 39.64575 | 24.57533 | 34093 ft | 389 kts | 333° |
| 2026-05-05 09:46 | 39.69429 | 24.54475 | 34095 ft | 389 kts | 334° |
| 2026-05-05 09:47 | 39.74314 | 24.51407 | 34092 ft | 389 kts | 333° |
| 2026-05-05 09:47 | 39.79203 | 24.48314 | 34090 ft | 390 kts | 333° |
| 2026-05-05 09:48 | 39.84050 | 24.45240 | 34094 ft | 390 kts | 333° |
| 2026-05-05 09:48 | 39.88936 | 24.42148 | 34088 ft | 390 kts | 333° |
| 2026-05-05 09:49 | 39.93825 | 24.39052 | 34091 ft | 390 kts | 333° |
| 2026-05-05 09:49 | 39.98716 | 24.35947 | 34091 ft | 390 kts | 333° |
| 2026-05-05 09:50 | 40.03575 | 24.32854 | 34091 ft | 390 kts | 333° |
| 2026-05-05 09:50 | 40.08458 | 24.29740 | 34090 ft | 390 kts | 333° |
| 2026-05-05 09:51 | 40.13340 | 24.26612 | 34087 ft | 390 kts | 333° |
| 2026-05-05 09:51 | 40.18227 | 24.23482 | 34091 ft | 390 kts | 333° |
| 2026-05-05 09:52 | 40.23082 | 24.20374 | 34091 ft | 390 kts | 333° |
| 2026-05-05 09:52 | 40.27973 | 24.17240 | 34090 ft | 391 kts | 333° |
| 2026-05-05 09:53 | 40.32863 | 24.14101 | 34086 ft | 391 kts | 333° |
| 2026-05-05 09:53 | 40.37721 | 24.10972 | 34087 ft | 391 kts | 333° |
| 2026-05-05 09:54 | 40.42615 | 24.07815 | 34087 ft | 391 kts | 333° |
| 2026-05-05 09:54 | 40.47478 | 24.04676 | 34083 ft | 390 kts | 333° |
| 2026-05-05 09:55 | 40.52345 | 24.01535 | 34083 ft | 391 kts | 333° |
| 2026-05-05 09:55 | 40.57229 | 23.98368 | 34083 ft | 391 kts | 333° |
| 2026-05-05 09:56 | 40.62122 | 23.95199 | 34078 ft | 391 kts | 334° |
| 2026-05-05 09:56 | 40.67027 | 23.92126 | 34078 ft | 392 kts | 334° |
| 2026-05-05 09:57 | 40.71963 | 23.89062 | 34074 ft | 392 kts | 334° |
| 2026-05-05 09:57 | 40.76909 | 23.85966 | 34075 ft | 392 kts | 334° |
| 2026-05-05 09:58 | 40.81815 | 23.82874 | 34076 ft | 393 kts | 334° |
| 2026-05-05 09:58 | 40.86756 | 23.79740 | 34070 ft | 393 kts | 334° |
| 2026-05-05 09:59 | 40.91697 | 23.76601 | 34067 ft | 393 kts | 334° |
| 2026-05-05 09:59 | 40.96608 | 23.73487 | 34064 ft | 393 kts | 334° |
| 2026-05-05 10:00 | 41.01550 | 23.70364 | 34061 ft | 393 kts | 334° |
| 2026-05-05 10:00 | 41.06505 | 23.67210 | 34062 ft | 393 kts | 334° |
| 2026-05-05 10:01 | 41.11403 | 23.64085 | 34061 ft | 393 kts | 334° |
| 2026-05-05 10:01 | 41.16353 | 23.60919 | 34063 ft | 394 kts | 334° |
| 2026-05-05 10:02 | 41.21292 | 23.57763 | 34069 ft | 394 kts | 334° |
| 2026-05-05 10:02 | 41.26238 | 23.54605 | 34068 ft | 394 kts | 334° |
| 2026-05-05 10:03 | 41.31160 | 23.51444 | 34068 ft | 394 kts | 334° |
| 2026-05-05 10:03 | 41.36091 | 23.48264 | 34065 ft | 394 kts | 334° |
| 2026-05-05 10:04 | 41.41018 | 23.45083 | 34069 ft | 393 kts | 334° |
| 2026-05-05 10:04 | 41.45942 | 23.41886 | 34072 ft | 393 kts | 333° |
| 2026-05-05 10:05 | 41.50838 | 23.38695 | 34079 ft | 393 kts | 334° |
| 2026-05-05 10:05 | 41.55765 | 23.35476 | 34082 ft | 392 kts | 333° |
| 2026-05-05 10:06 | 41.60644 | 23.32274 | 34084 ft | 392 kts | 334° |
| 2026-05-05 10:06 | 41.65548 | 23.29063 | 34082 ft | 392 kts | 334° |
| 2026-05-05 10:07 | 41.70459 | 23.25844 | 34090 ft | 392 kts | 333° |
| 2026-05-05 10:07 | 41.75331 | 23.22644 | 34093 ft | 392 kts | 334° |
| 2026-05-05 10:08 | 41.80249 | 23.19404 | 34098 ft | 392 kts | 333° |
| 2026-05-05 10:08 | 41.85150 | 23.16168 | 34096 ft | 392 kts | 333° |
| 2026-05-05 10:09 | 41.90033 | 23.12939 | 34095 ft | 392 kts | 333° |
| 2026-05-05 10:09 | 41.94937 | 23.09693 | 34100 ft | 392 kts | 333° |
| 2026-05-05 10:10 | 41.99816 | 23.06466 | 34099 ft | 392 kts | 333° |
| 2026-05-05 10:10 | 42.04727 | 23.03203 | 34099 ft | 392 kts | 333° |
| 2026-05-05 10:11 | 42.09599 | 22.99953 | 34098 ft | 392 kts | 333° |
| 2026-05-05 10:11 | 42.14509 | 22.96685 | 34099 ft | 392 kts | 333° |
| 2026-05-05 10:12 | 42.19409 | 22.93421 | 34093 ft | 393 kts | 333° |
| 2026-05-05 10:12 | 42.24312 | 22.90135 | 34100 ft | 393 kts | 333° |
| 2026-05-05 10:13 | 42.29194 | 22.86857 | 34100 ft | 393 kts | 333° |
| 2026-05-05 10:13 | 42.34098 | 22.83569 | 34099 ft | 392 kts | 333° |
| 2026-05-05 10:14 | 42.38984 | 22.80289 | 34096 ft | 393 kts | 333° |
| 2026-05-05 10:14 | 42.43859 | 22.76996 | 34096 ft | 394 kts | 333° |
| 2026-05-05 10:15 | 42.48784 | 22.73667 | 34093 ft | 394 kts | 333° |
| 2026-05-05 10:15 | 42.53699 | 22.70356 | 34092 ft | 394 kts | 333° |
| 2026-05-05 10:16 | 42.58608 | 22.67037 | 34092 ft | 394 kts | 333° |
| 2026-05-05 10:16 | 42.63487 | 22.63724 | 34094 ft | 394 kts | 333° |
| 2026-05-05 10:17 | 42.68394 | 22.60391 | 34093 ft | 395 kts | 333° |
| 2026-05-05 10:17 | 42.73320 | 22.57046 | 34097 ft | 396 kts | 333° |
| 2026-05-05 10:18 | 42.78239 | 22.53687 | 34093 ft | 396 kts | 333° |
| 2026-05-05 10:18 | 42.83166 | 22.50311 | 34097 ft | 397 kts | 333° |
| 2026-05-05 10:19 | 42.88131 | 22.46938 | 34094 ft | 398 kts | 334° |
| 2026-05-05 10:19 | 42.93084 | 22.43619 | 34091 ft | 398 kts | 334° |
| 2026-05-05 10:20 | 42.98065 | 22.40276 | 34093 ft | 398 kts | 334° |
| 2026-05-05 10:20 | 43.03028 | 22.36935 | 34090 ft | 398 kts | 334° |
| 2026-05-05 10:21 | 43.08015 | 22.33557 | 34091 ft | 399 kts | 333° |
| 2026-05-05 10:21 | 43.12166 | 22.30743 | 34098 ft | 399 kts | 333° |
| 2026-05-05 10:22 | 43.17964 | 22.26806 | 34082 ft | 399 kts | 333° |
| 2026-05-05 10:22 | 43.22123 | 22.23979 | 34087 ft | 400 kts | 333° |
| 2026-05-05 10:23 | 43.27119 | 22.20571 | 34079 ft | 400 kts | 333° |
| 2026-05-05 10:23 | 43.32079 | 22.17180 | 34072 ft | 400 kts | 333° |
| 2026-05-05 10:24 | 43.37072 | 22.13762 | 34076 ft | 401 kts | 333° |
| 2026-05-05 10:24 | 43.42081 | 22.10333 | 34083 ft | 401 kts | 333° |
| 2026-05-05 10:25 | 43.47063 | 22.06916 | 34080 ft | 402 kts | 333° |
| 2026-05-05 10:25 | 43.52081 | 22.03473 | 34083 ft | 403 kts | 333° |
| 2026-05-05 10:26 | 43.57108 | 22.00008 | 34080 ft | 403 kts | 333° |
| 2026-05-05 10:26 | 43.62111 | 21.96546 | 34076 ft | 404 kts | 333° |
| 2026-05-05 10:27 | 43.67152 | 21.93069 | 34072 ft | 404 kts | 333° |
| 2026-05-05 10:27 | 43.72195 | 21.89584 | 34073 ft | 404 kts | 333° |
| 2026-05-05 10:28 | 43.77221 | 21.86099 | 34069 ft | 406 kts | 333° |
| 2026-05-05 10:28 | 43.82245 | 21.82598 | 34070 ft | 406 kts | 333° |
| 2026-05-05 10:29 | 43.87305 | 21.79068 | 34065 ft | 407 kts | 333° |
| 2026-05-05 10:29 | 43.92357 | 21.75546 | 34065 ft | 407 kts | 333° |
| 2026-05-05 10:30 | 43.97431 | 21.72007 | 34066 ft | 408 kts | 333° |
| 2026-05-05 10:30 | 44.02505 | 21.68457 | 34062 ft | 408 kts | 333° |
| 2026-05-05 10:31 | 44.07589 | 21.64883 | 34055 ft | 409 kts | 333° |
| 2026-05-05 10:31 | 44.12644 | 21.61318 | 34061 ft | 409 kts | 333° |
| 2026-05-05 10:32 | 44.17749 | 21.57720 | 34062 ft | 410 kts | 333° |
| 2026-05-05 10:32 | 44.22846 | 21.54114 | 34055 ft | 411 kts | 333° |
| 2026-05-05 10:33 | 44.27930 | 21.50508 | 34051 ft | 411 kts | 333° |
| 2026-05-05 10:33 | 44.33046 | 21.46889 | 34047 ft | 411 kts | 333° |
| 2026-05-05 10:34 | 44.38125 | 21.43283 | 34007 ft | 411 kts | 333° |
| 2026-05-05 10:34 | 44.40670 | 21.41473 | 33379 ft | 411 kts | 333° |
| 2026-05-05 10:34 | 44.43228 | 21.39655 | 32637 ft | 413 kts | 333° |
| 2026-05-05 10:35 | 44.45810 | 21.37818 | 31882 ft | 416 kts | 333° |
| 2026-05-05 10:35 | 44.48400 | 21.35970 | 31251 ft | 418 kts | 333° |
| 2026-05-05 10:35 | 44.53476 | 21.32352 | 32084 ft | 392 kts | 333° |
| 2026-05-05 10:36 | 44.55889 | 21.30629 | 32201 ft | 382 kts | 333° |
| 2026-05-05 10:36 | 44.58223 | 21.28955 | 32332 ft | 372 kts | 332° |
| 2026-05-05 10:36 | 44.60506 | 21.27311 | 32460 ft | 363 kts | 332° |
| 2026-05-05 10:36 | 44.62721 | 21.25714 | 32583 ft | 353 kts | 332° |
| 2026-05-05 10:37 | 44.64881 | 21.24157 | 32716 ft | 344 kts | 332° |
| 2026-05-05 10:37 | 44.66983 | 21.22644 | 32845 ft | 333 kts | 332° |
| 2026-05-05 10:37 | 44.69022 | 21.21177 | 32969 ft | 322 kts | 332° |
| 2026-05-05 10:37 | 44.70959 | 21.19787 | 33096 ft | 310 kts | 333° |
| 2026-05-05 10:38 | 44.72845 | 21.18434 | 33219 ft | 297 kts | 332° |
| 2026-05-05 10:38 | 44.74671 | 21.17127 | 33128 ft | 292 kts | 333° |
| 2026-05-05 10:38 | 44.76505 | 21.15820 | 32646 ft | 299 kts | 333° |
| 2026-05-05 10:38 | 44.78394 | 21.14482 | 32173 ft | 306 kts | 333° |
| 2026-05-05 10:39 | 44.80267 | 21.13163 | 32060 ft | 300 kts | 333° |
| 2026-05-05 10:39 | 44.82111 | 21.11889 | 32079 ft | 290 kts | 334° |
| 2026-05-05 10:39 | 44.83927 | 21.10658 | 31823 ft | 290 kts | 334° |
| 2026-05-05 10:39 | 44.85767 | 21.09440 | 31352 ft | 298 kts | 334° |
| 2026-05-05 10:40 | 44.87668 | 21.08213 | 31063 ft | 299 kts | 335° |
| 2026-05-05 10:40 | 44.89554 | 21.07043 | 31040 ft | 290 kts | 336° |
| 2026-05-05 10:40 | 44.91400 | 21.05957 | 30946 ft | 285 kts | 337° |
| 2026-05-05 10:40 | 44.93244 | 21.04947 | 30603 ft | 290 kts | 339° |
| 2026-05-05 10:41 | 44.95172 | 21.03994 | 30246 ft | 295 kts | 341° |
| 2026-05-05 10:41 | 44.97125 | 21.03159 | 30121 ft | 290 kts | 344° |
| 2026-05-05 10:41 | 44.99067 | 21.02481 | 30039 ft | 284 kts | 347° |
| 2026-05-05 10:41 | 45.01010 | 21.01956 | 29734 ft | 286 kts | 350° |
| 2026-05-05 10:42 | 45.05012 | 21.01354 | 29128 ft | 289 kts | 356° |
| 2026-05-05 10:42 | 45.07002 | 21.01308 | 29028 ft | 284 kts | 359° |
| 2026-05-05 10:42 | 45.08999 | 21.01374 | 28340 ft | 298 kts | 356° |
| 2026-05-05 10:43 | 45.11140 | 21.01049 | 27268 ft | 324 kts | 348° |
| 2026-05-05 10:43 | 45.13406 | 21.00146 | 26436 ft | 342 kts | 336° |
| 2026-05-05 10:43 | 45.15274 | 20.98751 | 28516 ft | 262 kts | 325° |
| 2026-05-05 10:43 | 45.16711 | 20.97229 | 29081 ft | 268 kts | 316° |
| 2026-05-05 10:44 | 45.17995 | 20.95120 | 28495 ft | 300 kts | 304° |
| 2026-05-05 10:44 | 45.19125 | 20.92392 | 27639 ft | 340 kts | 300° |
| 2026-05-05 10:44 | 45.20324 | 20.89380 | 27381 ft | 361 kts | 300° |
| 2026-05-05 10:44 | 45.21586 | 20.86215 | 27131 ft | 383 kts | 300° |
| 2026-05-05 10:45 | 45.23010 | 20.82889 | 26875 ft | 404 kts | 307° |
| 2026-05-05 10:45 | 45.24991 | 20.79926 | 26616 ft | 419 kts | 321° |
| 2026-05-05 10:45 | 45.27451 | 20.77719 | 26362 ft | 426 kts | 332° |
| 2026-05-05 10:45 | 45.30074 | 20.75740 | 26118 ft | 426 kts | 332° |
| 2026-05-05 10:46 | 45.32701 | 20.73759 | 25976 ft | 424 kts | 332° |
| 2026-05-05 10:46 | 45.35323 | 20.71779 | 26026 ft | 425 kts | 332° |
| 2026-05-05 10:46 | 45.37911 | 20.69822 | 26027 ft | 426 kts | 332° |
| 2026-05-05 10:46 | 45.40532 | 20.67838 | 26029 ft | 426 kts | 332° |
| 2026-05-05 10:47 | 45.43158 | 20.65849 | 26027 ft | 426 kts | 332° |
| 2026-05-05 10:47 | 45.45779 | 20.63860 | 26027 ft | 426 kts | 331° |
| 2026-05-05 10:47 | 45.48370 | 20.61889 | 26027 ft | 426 kts | 331° |
| 2026-05-05 10:47 | 45.50988 | 20.59894 | 26028 ft | 426 kts | 331° |
| 2026-05-05 10:48 | 45.53615 | 20.57889 | 26027 ft | 426 kts | 331° |
| 2026-05-05 10:48 | 45.56206 | 20.55914 | 26029 ft | 426 kts | 331° |
| 2026-05-05 10:48 | 45.58831 | 20.53916 | 26025 ft | 426 kts | 331° |
| 2026-05-05 10:48 | 45.61463 | 20.51907 | 26026 ft | 427 kts | 331° |
| 2026-05-05 10:49 | 45.64049 | 20.49928 | 26027 ft | 427 kts | 331° |
| 2026-05-05 10:49 | 45.66673 | 20.47915 | 26026 ft | 427 kts | 331° |
| 2026-05-05 10:49 | 45.69296 | 20.45903 | 26028 ft | 427 kts | 331° |
| 2026-05-05 10:49 | 45.71924 | 20.43887 | 26025 ft | 427 kts | 331° |
| 2026-05-05 10:50 | 45.74546 | 20.41874 | 26024 ft | 427 kts | 331° |
| 2026-05-05 10:50 | 45.77134 | 20.39880 | 26025 ft | 427 kts | 331° |
| 2026-05-05 10:50 | 45.79757 | 20.37858 | 26023 ft | 428 kts | 331° |
| 2026-05-05 10:50 | 45.82392 | 20.35825 | 26023 ft | 427 kts | 331° |
| 2026-05-05 10:51 | 45.85011 | 20.33803 | 26021 ft | 428 kts | 331° |
| 2026-05-05 10:51 | 45.87612 | 20.31799 | 26022 ft | 428 kts | 331° |
| 2026-05-05 10:51 | 45.90239 | 20.29772 | 26022 ft | 428 kts | 331° |
| 2026-05-05 10:51 | 45.92869 | 20.27737 | 26025 ft | 428 kts | 330° |
| 2026-05-05 10:52 | 45.95511 | 20.25688 | 26024 ft | 428 kts | 330° |
| 2026-05-05 10:52 | 45.98102 | 20.23677 | 26023 ft | 428 kts | 330° |
| 2026-05-05 10:52 | 46.00731 | 20.21632 | 26023 ft | 428 kts | 330° |
| 2026-05-05 10:52 | 46.03346 | 20.19597 | 26019 ft | 428 kts | 330° |
| 2026-05-05 10:53 | 46.05980 | 20.17548 | 26020 ft | 428 kts | 330° |
| 2026-05-05 10:53 | 46.08604 | 20.15503 | 26018 ft | 428 kts | 330° |
| 2026-05-05 10:53 | 46.11227 | 20.13456 | 26017 ft | 429 kts | 331° |
| 2026-05-05 10:53 | 46.13949 | 20.11692 | 26015 ft | 430 kts | 339° |
| 2026-05-05 10:54 | 46.16835 | 20.10561 | 26015 ft | 431 kts | 348° |
| 2026-05-05 10:54 | 46.19827 | 20.10093 | 26016 ft | 433 kts | 357° |
| 2026-05-05 10:54 | 46.22839 | 20.10301 | 26019 ft | 435 kts | 4° |
| 2026-05-05 10:54 | 46.25849 | 20.10726 | 26015 ft | 435 kts | 4° |
| 2026-05-05 10:55 | 46.28860 | 20.11139 | 26016 ft | 435 kts | 4° |
| 2026-05-05 10:55 | 46.31872 | 20.11544 | 26017 ft | 435 kts | 4° |
| 2026-05-05 10:55 | 46.34888 | 20.11949 | 26012 ft | 435 kts | 4° |
| 2026-05-05 10:55 | 46.37897 | 20.12354 | 26013 ft | 435 kts | 4° |
| 2026-05-05 10:56 | 46.40918 | 20.12762 | 26015 ft | 435 kts | 4° |
| 2026-05-05 10:56 | 46.43942 | 20.13178 | 26016 ft | 435 kts | 4° |
| 2026-05-05 10:56 | 46.46927 | 20.13594 | 26015 ft | 435 kts | 4° |
| 2026-05-05 10:56 | 46.49945 | 20.14015 | 26008 ft | 435 kts | 4° |
| 2026-05-05 10:57 | 46.52973 | 20.14433 | 26011 ft | 436 kts | 4° |
| 2026-05-05 10:57 | 46.55995 | 20.14850 | 26013 ft | 436 kts | 4° |
| 2026-05-05 10:57 | 46.59021 | 20.15268 | 26008 ft | 435 kts | 4° |
| 2026-05-05 10:57 | 46.62045 | 20.15687 | 26005 ft | 435 kts | 4° |
| 2026-05-05 10:58 | 46.65028 | 20.16098 | 26015 ft | 436 kts | 4° |
| 2026-05-05 10:58 | 46.68051 | 20.16514 | 26010 ft | 436 kts | 4° |
| 2026-05-05 10:58 | 46.71080 | 20.16933 | 26013 ft | 436 kts | 4° |
| 2026-05-05 10:58 | 46.74109 | 20.17357 | 26006 ft | 436 kts | 4° |
| 2026-05-05 10:59 | 46.77135 | 20.17783 | 26006 ft | 436 kts | 4° |
| 2026-05-05 10:59 | 46.80134 | 20.18204 | 26011 ft | 436 kts | 4° |
| 2026-05-05 10:59 | 46.83170 | 20.18627 | 26011 ft | 436 kts | 4° |
| 2026-05-05 10:59 | 46.86190 | 20.19047 | 26009 ft | 436 kts | 4° |
| 2026-05-05 11:00 | 46.89223 | 20.19467 | 25998 ft | 437 kts | 4° |
| 2026-05-05 11:00 | 46.92222 | 20.19883 | 25994 ft | 437 kts | 4° |
| 2026-05-05 11:00 | 46.95243 | 20.20304 | 25993 ft | 437 kts | 4° |
| 2026-05-05 11:00 | 46.97257 | 20.20586 | 26006 ft | 437 kts | 4° |
| 2026-05-05 11:01 | 47.00297 | 20.21013 | 25997 ft | 437 kts | 4° |
| 2026-05-05 11:01 | 47.04313 | 20.21577 | 25994 ft | 437 kts | 4° |
| 2026-05-05 11:01 | 47.07334 | 20.22001 | 26006 ft | 437 kts | 4° |
| 2026-05-05 11:01 | 47.10375 | 20.22088 | 25999 ft | 435 kts | 353° |
| 2026-05-05 11:02 | 47.12362 | 20.21677 | 26009 ft | 433 kts | 346° |
| 2026-05-05 11:02 | 47.15239 | 20.20366 | 26005 ft | 431 kts | 335° |
| 2026-05-05 11:02 | 47.17875 | 20.18290 | 25994 ft | 429 kts | 324° |
| 2026-05-05 11:02 | 47.20188 | 20.15529 | 25997 ft | 428 kts | 314° |
| 2026-05-05 11:03 | 47.22236 | 20.12339 | 26004 ft | 428 kts | 311° |
| 2026-05-05 11:03 | 47.24246 | 20.09167 | 26005 ft | 428 kts | 311° |
| 2026-05-05 11:03 | 47.26276 | 20.05968 | 26000 ft | 428 kts | 312° |
| 2026-05-05 11:03 | 47.28318 | 20.02750 | 25998 ft | 428 kts | 311° |
| 2026-05-05 11:04 | 47.30355 | 19.99536 | 25987 ft | 428 kts | 311° |
| 2026-05-05 11:04 | 47.32391 | 19.96317 | 25993 ft | 428 kts | 311° |
| 2026-05-05 11:04 | 47.34425 | 19.93094 | 25997 ft | 429 kts | 311° |
| 2026-05-05 11:04 | 47.36324 | 19.89779 | 25987 ft | 427 kts | 302° |
| 2026-05-05 11:05 | 47.37669 | 19.85893 | 25992 ft | 425 kts | 288° |
| 2026-05-05 11:05 | 47.38328 | 19.81649 | 25984 ft | 424 kts | 275° |
| 2026-05-05 11:05 | 47.38268 | 19.77302 | 25988 ft | 423 kts | 261° |
| 2026-05-05 11:05 | 47.37568 | 19.73087 | 25988 ft | 423 kts | 254° |
| 2026-05-05 11:06 | 47.36753 | 19.68907 | 25984 ft | 423 kts | 254° |
| 2026-05-05 11:06 | 47.36131 | 19.64664 | 25990 ft | 423 kts | 265° |
| 2026-05-05 11:06 | 47.36287 | 19.60396 | 25987 ft | 424 kts | 281° |
| 2026-05-05 11:06 | 47.37286 | 19.56297 | 25990 ft | 426 kts | 297° |
| 2026-05-05 11:07 | 47.39042 | 19.52755 | 25993 ft | 429 kts | 311° |
| 2026-05-05 11:07 | 47.41068 | 19.49506 | 25973 ft | 430 kts | 311° |
| 2026-05-05 11:07 | 47.43097 | 19.46267 | 25973 ft | 430 kts | 310° |
| 2026-05-05 11:07 | 47.45133 | 19.43012 | 25971 ft | 431 kts | 311° |
| 2026-05-05 11:08 | 47.47162 | 19.39754 | 25975 ft | 430 kts | 311° |
| 2026-05-05 11:08 | 47.49173 | 19.36513 | 25968 ft | 419 kts | 310° |
| 2026-05-05 11:08 | 47.51101 | 19.33404 | 25974 ft | 402 kts | 310° |
| 2026-05-05 11:08 | 47.52951 | 19.30417 | 25975 ft | 387 kts | 310° |
| 2026-05-05 11:09 | 47.54742 | 19.27524 | 25969 ft | 374 kts | 310° |
| 2026-05-05 11:09 | 47.56451 | 19.24758 | 25979 ft | 366 kts | 310° |
| 2026-05-05 11:09 | 47.58168 | 19.21974 | 25946 ft | 365 kts | 310° |
| 2026-05-05 11:09 | 47.59888 | 19.19181 | 25488 ft | 366 kts | 310° |
| 2026-05-05 11:10 | 47.61608 | 19.16379 | 24852 ft | 371 kts | 309° |
| 2026-05-05 11:10 | 47.63367 | 19.13499 | 24162 ft | 379 kts | 310° |
| 2026-05-05 11:10 | 47.65130 | 19.10545 | 23488 ft | 386 kts | 308° |
| 2026-05-05 11:10 | 47.66964 | 19.07499 | 22691 ft | 405 kts | 309° |
| 2026-05-05 11:11 | 47.68886 | 19.04393 | 21919 ft | 411 kts | 310° |
| 2026-05-05 11:11 | 47.70808 | 19.01300 | 21164 ft | 413 kts | 309° |
| 2026-05-05 11:11 | 47.72768 | 18.98156 | 20429 ft | 415 kts | 310° |
| 2026-05-05 11:11 | 47.74770 | 18.95030 | 19707 ft | 418 kts | 312° |
| 2026-05-05 11:12 | 47.76849 | 18.92006 | 18999 ft | 419 kts | 313° |
| 2026-05-05 11:12 | 47.78953 | 18.88993 | 18324 ft | 421 kts | 314° |
| 2026-05-05 11:12 | 47.81114 | 18.86036 | 17552 ft | 421 kts | 313° |
| 2026-05-05 11:12 | 47.83273 | 18.83086 | 16790 ft | 423 kts | 316° |
| 2026-05-05 11:13 | 47.85532 | 18.80240 | 16045 ft | 424 kts | 318° |
| 2026-05-05 11:13 | 47.87910 | 18.77614 | 15315 ft | 425 kts | 322° |
| 2026-05-05 11:13 | 47.90250 | 18.75020 | 14615 ft | 424 kts | 319° |
| 2026-05-05 11:13 | 47.92561 | 18.72259 | 13916 ft | 423 kts | 318° |
| 2026-05-05 11:14 | 47.94857 | 18.69516 | 13176 ft | 422 kts | 318° |
| 2026-05-05 11:14 | 47.97145 | 18.66786 | 12414 ft | 420 kts | 318° |
| 2026-05-05 11:14 | 47.99417 | 18.64029 | 11680 ft | 416 kts | 315° |
| 2026-05-05 11:14 | 48.01271 | 18.60789 | 10960 ft | 407 kts | 298° |
| 2026-05-05 11:15 | 48.02422 | 18.57058 | 10266 ft | 397 kts | 283° |
| 2026-05-05 11:15 | 48.02835 | 18.53031 | 9636 ft | 385 kts | 266° |
| 2026-05-05 11:15 | 48.02518 | 18.49189 | 9469 ft | 360 kts | 252° |
| 2026-05-05 11:15 | 48.01663 | 18.45799 | 9339 ft | 339 kts | 239° |
| 2026-05-05 11:16 | 48.00378 | 18.42968 | 9187 ft | 321 kts | 226° |
| 2026-05-05 11:16 | 47.98797 | 18.40785 | 9070 ft | 306 kts | 215° |
| 2026-05-05 11:16 | 47.96986 | 18.39193 | 8933 ft | 293 kts | 204° |
| 2026-05-05 11:16 | 47.95110 | 18.38245 | 8934 ft | 277 kts | 193° |
| 2026-05-05 11:17 | 47.93273 | 18.37870 | 8953 ft | 263 kts | 184° |
| 2026-05-05 11:17 | 47.91483 | 18.37993 | 8946 ft | 251 kts | 174° |
| 2026-05-05 11:17 | 47.89812 | 18.38549 | 8948 ft | 239 kts | 165° |
| 2026-05-05 11:17 | 47.88322 | 18.39446 | 8941 ft | 229 kts | 157° |
| 2026-05-05 11:18 | 47.86961 | 18.40667 | 8944 ft | 229 kts | 149° |
| 2026-05-05 11:18 | 47.85735 | 18.42210 | 8899 ft | 233 kts | 140° |
| 2026-05-05 11:18 | 47.84681 | 18.44062 | 8768 ft | 235 kts | 130° |
| 2026-05-05 11:18 | 47.83762 | 18.46090 | 8640 ft | 235 kts | 130° |
| 2026-05-05 11:19 | 47.82853 | 18.48085 | 8512 ft | 235 kts | 130° |
| 2026-05-05 11:19 | 47.81933 | 18.50099 | 8382 ft | 235 kts | 130° |
| 2026-05-05 11:19 | 47.81016 | 18.52107 | 8272 ft | 234 kts | 130° |
| 2026-05-05 11:19 | 47.80100 | 18.54110 | 8127 ft | 234 kts | 130° |
| 2026-05-05 11:20 | 47.79186 | 18.56109 | 7947 ft | 233 kts | 130° |
| 2026-05-05 11:20 | 47.78278 | 18.58097 | 7745 ft | 232 kts | 130° |
| 2026-05-05 11:20 | 47.77369 | 18.60085 | 7536 ft | 232 kts | 130° |
| 2026-05-05 11:20 | 47.76461 | 18.62066 | 7335 ft | 231 kts | 130° |
| 2026-05-05 11:21 | 47.75555 | 18.64038 | 7131 ft | 231 kts | 130° |
| 2026-05-05 11:21 | 47.74651 | 18.66005 | 6928 ft | 230 kts | 130° |
| 2026-05-05 11:21 | 47.73748 | 18.67970 | 6720 ft | 229 kts | 130° |
| 2026-05-05 11:21 | 47.72849 | 18.69931 | 6517 ft | 229 kts | 130° |
| 2026-05-05 11:22 | 47.71952 | 18.71882 | 6315 ft | 228 kts | 131° |
| 2026-05-05 11:22 | 47.71059 | 18.73825 | 6107 ft | 228 kts | 131° |
| 2026-05-05 11:22 | 47.70171 | 18.75754 | 5901 ft | 225 kts | 130° |
| 2026-05-05 11:22 | 47.69287 | 18.77675 | 5699 ft | 225 kts | 130° |
| 2026-05-05 11:23 | 47.68402 | 18.79593 | 5512 ft | 225 kts | 130° |
| 2026-05-05 11:23 | 47.67522 | 18.81498 | 5367 ft | 222 kts | 130° |
| 2026-05-05 11:23 | 47.66643 | 18.83400 | 5314 ft | 224 kts | 131° |
| 2026-05-05 11:23 | 47.65759 | 18.85311 | 5259 ft | 225 kts | 130° |
| 2026-05-05 11:24 | 47.64875 | 18.87222 | 5204 ft | 223 kts | 130° |
| 2026-05-05 11:24 | 47.64010 | 18.89094 | 5163 ft | 215 kts | 130° |
| 2026-05-05 11:24 | 47.63190 | 18.90874 | 5108 ft | 205 kts | 130° |
| 2026-05-05 11:24 | 47.62391 | 18.92600 | 5069 ft | 203 kts | 130° |
| 2026-05-05 11:25 | 47.61626 | 18.94372 | 5010 ft | 204 kts | 129° |
| 2026-05-05 11:25 | 47.60798 | 18.96050 | 5003 ft | 197 kts | 135° |
| 2026-05-05 11:25 | 47.59903 | 18.97594 | 4764 ft | 200 kts | 137° |
| 2026-05-05 11:25 | 47.58961 | 18.99147 | 4475 ft | 205 kts | 137° |
| 2026-05-05 11:26 | 47.58001 | 19.00718 | 4206 ft | 206 kts | 136° |
| 2026-05-05 11:26 | 47.57038 | 19.02290 | 3923 ft | 205 kts | 137° |
| 2026-05-05 11:26 | 47.56096 | 19.03829 | 3672 ft | 200 kts | 137° |
| 2026-05-05 11:26 | 47.55162 | 19.05351 | 3412 ft | 199 kts | 137° |
| 2026-05-05 11:27 | 47.54238 | 19.06857 | 3161 ft | 198 kts | 138° |
| 2026-05-05 11:27 | 47.53314 | 19.08361 | 2893 ft | 196 kts | 137° |
| 2026-05-05 11:27 | 47.52406 | 19.09839 | 2642 ft | 192 kts | 137° |
| 2026-05-05 11:27 | 47.51513 | 19.11292 | 2388 ft | 190 kts | 137° |
| 2026-05-05 11:28 | 47.50635 | 19.12720 | 2138 ft | 185 kts | 137° |
| 2026-05-05 11:28 | 47.49803 | 19.14076 | 1893 ft | 170 kts | 139° |
| 2026-05-05 11:28 | 47.49039 | 19.15318 | 1695 ft | 158 kts | 138° |
| 2026-05-05 11:28 | 47.48316 | 19.16492 | 1472 ft | 149 kts | 140° |
| 2026-05-05 11:29 | 47.47633 | 19.17599 | 1293 ft | 143 kts | 140° |
| 2026-05-05 11:29 | 47.46974 | 19.18667 | 1098 ft | 140 kts | 137° |
| 2026-05-05 11:29 | 47.46314 | 19.19734 | 917 ft | 142 kts | 136° |
| 2026-05-05 11:29 | 47.45646 | 19.20815 | 732 ft | 142 kts | 136° |
| 2026-05-05 11:30 | 47.44983 | 19.21890 | 545 ft | 141 kts | 137° |
| 2026-05-05 11:30 | 47.44368 | 19.22935 | 458 ft | 122 kts | 140° |
| 2026-05-05 11:30 | 47.43905 | 19.23595 | 456 ft | 38 kts | 131° |
| 2026-05-05 11:30 | 47.43790 | 19.23805 | 455 ft | 23 kts | 130° |
| 2026-05-05 11:31 | 47.43692 | 19.24008 | 453 ft | 23 kts | 104° |
| 2026-05-05 11:31 | 47.43670 | 19.24251 | 456 ft | 24 kts | 107° |
| 2026-05-05 11:31 | 47.43621 | 19.24485 | 456 ft | 24 kts | 126° |
| 2026-05-05 11:31 | 47.43511 | 19.24679 | 457 ft | 25 kts | 132° |
| 2026-05-05 11:32 | 47.43394 | 19.24870 | 457 ft | 24 kts | 132° |
| 2026-05-05 11:32 | 47.43282 | 19.25051 | 457 ft | 23 kts | 133° |
| 2026-05-05 11:32 | 47.43259 | 19.25261 | 457 ft | 23 kts | 58° |
| 2026-05-05 11:32 | 47.43324 | 19.25414 | 457 ft | 16 kts | 104° |
| 2026-05-05 11:33 | 47.43271 | 19.25560 | 457 ft | 17 kts | 140° |
| 2026-05-05 11:33 | 47.43216 | 19.25676 | 457 ft | 8 kts | 82° |
| 2026-05-05 11:33 | 47.43238 | 19.25724 | 457 ft | 1 kts | 47° |
| 2026-05-05 11:33 | 47.43249 | 19.25742 | 457 ft | 0 kts | 47° |